Time;durP1;ratioP1;P1;durP2;ratioP2;P2;SDS_P1;SDS_P2;PMS_P1;PMS_P2;Temp;Humidity;BMP_temperature;BMP_pressure;BME280_temperature;BME280_humidity;BME280_pressure;Samples;Min_cycle;Max_cycle;Signal;HPM_P1;HPM_P2
2021/10/16 00:00:39;;;;;;;2.50;1.00;;;16.00;86.50;;;;;;4209737;28;20452;-57
2021/10/16 00:03:02;;;;;;;1.38;0.90;;;16.00;87.20;;;;;;4209721;28;20567;-56
2021/10/16 00:05:24;;;;;;;1.23;1.02;;;16.00;86.40;;;;;;4209528;28;20052;-56
2021/10/16 00:07:47;;;;;;;2.45;1.20;;;16.00;86.40;;;;;;4208888;28;20055;-57
2021/10/16 00:10:10;;;;;;;2.58;0.85;;;16.00;86.20;;;;;;4209539;28;20055;-56
2021/10/16 00:12:32;;;;;;;1.45;0.73;;;15.90;86.30;;;;;;4209698;28;20553;-57
2021/10/16 00:14:54;;;;;;;2.65;0.80;;;15.90;86.50;;;;;;4209442;28;20059;-57
2021/10/16 00:17:16;;;;;;;1.52;0.90;;;15.90;86.50;;;;;;4209272;28;20052;-57
2021/10/16 00:19:38;;;;;;;1.45;0.90;;;15.90;86.40;;;;;;4206563;28;20059;-55
2021/10/16 00:22:00;;;;;;;2.50;0.80;;;15.90;86.50;;;;;;4209530;28;20044;-57
2021/10/16 00:24:24;;;;;;;3.33;1.00;;;15.90;86.50;;;;;;4209371;28;20157;-58
2021/10/16 00:26:46;;;;;;;1.00;0.70;;;15.90;86.30;;;;;;4209129;28;20164;-57
2021/10/16 00:29:08;;;;;;;1.65;0.60;;;15.90;86.40;;;;;;4208816;28;20075;-57
2021/10/16 00:31:31;;;;;;;3.42;0.80;;;15.90;86.50;;;;;;4207273;28;20153;-57
2021/10/16 00:33:53;;;;;;;3.13;0.90;;;15.90;86.50;;;;;;4209202;28;20505;-56
2021/10/16 00:36:15;;;;;;;1.02;0.95;;;15.90;86.50;;;;;;4208798;28;20433;-56
2021/10/16 00:38:37;;;;;;;2.00;0.80;;;15.90;86.40;;;;;;4208939;28;20071;-56
2021/10/16 00:41:01;;;;;;;1.75;0.90;;;15.90;86.50;;;;;;4207834;28;20079;-56
2021/10/16 00:43:23;;;;;;;5.13;1.25;;;15.90;86.30;;;;;;4207467;28;20472;-54
2021/10/16 00:45:45;;;;;;;1.52;0.75;;;15.90;86.60;;;;;;4208792;28;20056;-55
2021/10/16 00:48:07;;;;;;;3.25;1.27;;;15.90;86.50;;;;;;4218340;27;20134;-56
2021/10/16 00:50:29;;;;;;;0.68;0.68;;;15.90;86.60;;;;;;4208279;28;20139;-55
2021/10/16 00:52:52;;;;;;;3.42;1.00;;;15.80;86.60;;;;;;4207709;28;20063;-55
2021/10/16 00:55:16;;;;;;;2.53;1.10;;;15.80;87.20;;;;;;4208982;28;20112;-55
2021/10/16 00:57:40;;;;;;;2.22;0.90;;;15.80;86.30;;;;;;4213562;27;20044;-58
2021/10/16 01:00:05;;;;;;;2.13;1.15;;;15.80;86.40;;;;;;4224369;27;20130;-57
2021/10/16 01:02:26;;;;;;;3.80;1.15;;;15.80;86.60;;;;;;4224305;27;20130;-56
2021/10/16 01:04:49;;;;;;;2.05;1.00;;;15.80;86.50;;;;;;4223953;27;20043;-56
2021/10/16 01:07:13;;;;;;;2.97;1.30;;;15.80;86.40;;;;;;4208340;28;20079;-56
2021/10/16 01:09:35;;;;;;;4.20;1.17;;;15.80;86.50;;;;;;4224171;27;20055;-55
2021/10/16 01:11:57;;;;;;;1.95;1.25;;;15.80;87.40;;;;;;4223724;27;20409;-56
2021/10/16 01:14:22;;;;;;;3.95;1.05;;;15.80;86.50;;;;;;4222133;27;20589;-55
2021/10/16 01:16:45;;;;;;;2.90;1.30;;;15.80;87.20;;;;;;4225242;27;20054;-53
2021/10/16 01:19:11;;;;;;;4.53;1.42;;;15.80;86.50;;;;;;4208264;28;20064;-54
2021/10/16 01:21:35;;;;;;;3.88;1.27;;;15.80;86.40;;;;;;4208481;28;20139;-58
2021/10/16 01:23:58;;;;;;;2.05;1.23;;;15.80;86.60;;;;;;4214720;27;20042;-57
2021/10/16 01:26:21;;;;;;;3.97;1.50;;;15.80;86.70;;;;;;4225353;27;20067;-55
2021/10/16 01:28:43;;;;;;;1.67;1.05;;;15.80;86.70;;;;;;4208937;28;20094;-57
2021/10/16 01:31:05;;;;;;;2.47;1.52;;;15.80;86.50;;;;;;4206562;28;20044;-57
2021/10/16 01:33:28;;;;;;;4.13;1.25;;;15.80;86.50;;;;;;4208148;28;20470;-56
2021/10/16 01:35:59;;;;;;;2.85;1.17;;;15.80;86.60;;;;;;4206987;28;20442;-57
2021/10/16 01:38:22;;;;;;;2.63;1.23;;;15.70;86.20;;;;;;4221448;27;20122;-56
2021/10/16 01:40:45;;;;;;;2.72;1.08;;;15.70;86.70;;;;;;4203338;28;20071;-57
2021/10/16 01:43:07;;;;;;;3.05;1.38;;;15.70;86.60;;;;;;4206263;28;20059;-55
2021/10/16 01:45:29;;;;;;;4.03;1.20;;;15.70;86.60;;;;;;4206650;28;20040;-54
2021/10/16 01:47:55;;;;;;;3.88;1.45;;;15.70;86.60;;;;;;4198805;28;20044;-57
2021/10/16 01:50:38;;;;;;;2.35;1.20;;;15.70;86.50;;;;;;4206195;28;20048;-58
2021/10/16 01:53:08;;;;;;;5.72;1.45;;;15.70;86.20;;;;;;4206224;28;20484;-57
2021/10/16 01:55:33;;;;;;;1.52;1.25;;;15.70;86.50;;;;;;4206958;28;20631;-60
2021/10/16 01:57:55;;;;;;;5.70;1.60;;;15.70;86.60;;;;;;4206339;28;20055;-56
2021/10/16 02:00:17;;;;;;;2.38;1.30;;;15.70;86.70;;;;;;4206331;28;20055;-57
2021/10/16 02:02:41;;;;;;;3.78;1.40;;;15.70;86.60;;;;;;4190018;28;20566;-55
2021/10/16 02:05:22;;;;;;;3.43;1.20;;;15.70;86.80;;;;;;4197742;28;20066;-55
2021/10/16 02:08:03;;;;;;;4.75;1.55;;;15.70;87.30;;;;;;4206651;28;20048;-56
2021/10/16 02:10:27;;;;;;;4.35;1.50;;;15.60;87.10;;;;;;4206367;28;20044;-56
2021/10/16 02:12:50;;;;;;;3.17;1.60;;;15.70;87.00;;;;;;4189630;28;20526;-57
2021/10/16 02:15:12;;;;;;;3.25;1.10;;;15.60;86.60;;;;;;4195109;28;20044;-55
2021/10/16 02:17:55;;;;;;;2.95;1.30;;;15.60;86.80;;;;;;4206820;28;20127;-56
2021/10/16 02:20:17;;;;;;;5.72;1.67;;;15.60;86.90;;;;;;4205020;28;20534;-57
2021/10/16 02:22:39;;;;;;;3.90;1.50;;;15.60;86.90;;;;;;4206417;28;20062;-57
2021/10/16 02:25:03;;;;;;;6.38;1.45;;;15.60;86.70;;;;;;4205976;28;21562;-56
2021/10/16 02:27:26;;;;;;;3.72;1.40;;;15.60;86.80;;;;;;4206461;28;20125;-57
2021/10/16 02:29:49;;;;;;;4.78;1.35;;;15.60;86.60;;;;;;4205926;28;20055;-56
2021/10/16 02:32:12;;;;;;;3.50;1.20;;;15.60;86.70;;;;;;4204006;28;20055;-57
2021/10/16 02:34:34;;;;;;;2.38;1.05;;;15.60;86.70;;;;;;4206220;28;20071;-56
2021/10/16 02:37:00;;;;;;;2.83;1.23;;;15.60;86.80;;;;;;4206190;28;20040;-57
2021/10/16 02:39:24;;;;;;;4.47;1.23;;;15.60;86.90;;;;;;4218590;28;20092;-56
2021/10/16 02:41:47;;;;;;;4.32;1.60;;;15.60;86.80;;;;;;4222579;27;20054;-56
2021/10/16 02:44:09;;;;;;;4.25;1.35;;;15.60;86.70;;;;;;4222902;27;20076;-56
2021/10/16 02:46:39;;;;;;;3.90;1.30;;;15.60;86.70;;;;;;4222608;27;20046;-55
2021/10/16 02:49:01;;;;;;;2.08;0.98;;;15.60;86.60;;;;;;4223304;28;20043;-54
2021/10/16 02:51:24;;;;;;;6.10;1.77;;;15.60;86.90;;;;;;4202690;28;20418;-56
2021/10/16 02:53:46;;;;;;;3.40;1.48;;;15.60;86.80;;;;;;4206394;28;20509;-57
2021/10/16 02:56:09;;;;;;;1.80;1.05;;;15.50;86.80;;;;;;4209332;28;20059;-57
2021/10/16 02:58:31;;;;;;;4.25;1.25;;;15.60;86.70;;;;;;4209512;28;20067;-57
2021/10/16 03:00:53;;;;;;;3.13;1.58;;;15.60;86.80;;;;;;4216020;28;20075;-56
2021/10/16 03:03:16;;;;;;;2.05;1.05;;;15.50;86.70;;;;;;4209193;28;20552;-56
2021/10/16 03:05:39;;;;;;;4.10;1.30;;;15.60;86.70;;;;;;4193924;28;20580;-55
2021/10/16 03:08:10;;;;;;;4.75;1.85;;;15.50;86.90;;;;;;4192398;28;20761;-57
2021/10/16 03:10:32;;;;;;;3.92;1.40;;;15.50;86.90;;;;;;4209393;28;20075;-57
2021/10/16 03:12:54;;;;;;;4.50;1.35;;;15.50;87.00;;;;;;4209049;28;20549;-56
2021/10/16 03:15:17;;;;;;;3.65;1.20;;;15.60;86.90;;;;;;4208782;28;20050;-56
2021/10/16 03:17:40;;;;;;;4.70;1.48;;;15.50;86.80;;;;;;4208930;28;20113;-57
2021/10/16 03:20:04;;;;;;;4.07;1.20;;;15.50;86.90;;;;;;4208420;28;20150;-55
2021/10/16 03:22:27;;;;;;;3.17;1.30;;;15.50;86.70;;;;;;4209097;28;20048;-56
2021/10/16 03:24:50;;;;;;;2.33;1.55;;;15.50;86.70;;;;;;4208872;28;20052;-57
2021/10/16 03:27:12;;;;;;;1.70;1.25;;;15.50;86.90;;;;;;4209043;28;20731;-56
2021/10/16 03:29:34;;;;;;;3.03;1.10;;;15.50;86.90;;;;;;4208504;28;20157;-56
2021/10/16 03:31:56;;;;;;;5.10;1.02;;;15.50;86.80;;;;;;4208826;28;20040;-57
2021/10/16 03:34:19;;;;;;;1.45;1.05;;;15.50;86.90;;;;;;4208700;28;20498;-57
2021/10/16 03:36:45;;;;;;;2.63;0.98;;;15.50;86.90;;;;;;4208585;28;20508;-56
2021/10/16 03:39:07;;;;;;;2.25;1.13;;;15.50;86.80;;;;;;4209509;28;20051;-56
2021/10/16 03:41:29;;;;;;;3.85;1.60;;;15.50;87.80;;;;;;4208709;28;20461;-55
2021/10/16 03:43:51;;;;;;;3.33;1.20;;;15.50;87.00;;;;;;4208592;28;20048;-57
2021/10/16 03:46:13;;;;;;;4.63;0.98;;;15.40;86.90;;;;;;4208426;28;20505;-57
2021/10/16 03:48:35;;;;;;;3.55;1.25;;;15.40;87.00;;;;;;4218707;27;20101;-57
2021/10/16 03:50:58;;;;;;;2.97;0.90;;;15.40;86.90;;;;;;4225382;27;20406;-57
2021/10/16 03:53:21;;;;;;;5.43;1.27;;;15.40;87.00;;;;;;4226467;27;20104;-57
2021/10/16 03:55:43;;;;;;;4.70;1.23;;;15.50;86.90;;;;;;4193061;28;20502;-56
2021/10/16 03:58:05;;;;;;;3.20;0.85;;;15.40;87.00;;;;;;4196667;28;20039;-57
2021/10/16 04:00:27;;;;;;;1.42;0.90;;;15.40;87.10;;;;;;4208481;28;20052;-56
2021/10/16 04:02:54;;;;;;;1.73;1.23;;;15.40;87.10;;;;;;4207399;28;20052;-57
2021/10/16 04:05:18;;;;;;;4.90;1.17;;;15.40;87.10;;;;;;4208371;28;20457;-56
2021/10/16 04:07:42;;;;;;;3.60;1.02;;;15.40;87.10;;;;;;4211311;28;20487;-58
2021/10/16 04:10:06;;;;;;;3.53;1.00;;;15.40;87.10;;;;;;4208289;28;20048;-58
2021/10/16 04:12:28;;;;;;;5.03;1.20;;;15.40;86.90;;;;;;4209673;28;20040;-55
2021/10/16 04:14:51;;;;;;;3.05;1.00;;;15.40;87.10;;;;;;4208185;28;20059;-57
2021/10/16 04:17:19;;;;;;;3.33;1.35;;;15.40;87.20;;;;;;4207832;28;20059;-57
2021/10/16 04:19:43;;;;;;;2.10;1.00;;;15.40;87.20;;;;;;4219564;27;20039;-57
2021/10/16 04:22:06;;;;;;;3.20;1.60;;;15.40;87.20;;;;;;4226554;27;20135;-56
2021/10/16 04:24:28;;;;;;;4.65;1.00;;;15.40;87.20;;;;;;4224528;28;20054;-57
2021/10/16 04:26:51;;;;;;;2.35;1.27;;;15.40;87.20;;;;;;4224759;27;20441;-55
2021/10/16 04:29:19;;;;;;;2.65;1.13;;;15.40;87.30;;;;;;4200428;28;20052;-57
2021/10/16 04:32:08;;;;;;;2.42;1.30;;;15.40;88.40;;;;;;4192372;28;20135;-57
2021/10/16 04:34:30;;;;;;;1.55;0.95;;;15.40;87.50;;;;;;4191287;28;20499;-57
2021/10/16 04:36:53;;;;;;;2.08;0.95;;;15.40;87.50;;;;;;4190956;28;20131;-57
2021/10/16 04:39:15;;;;;;;2.63;0.98;;;15.40;87.50;;;;;;4190799;28;20048;-55
2021/10/16 04:41:37;;;;;;;3.15;1.05;;;15.40;87.40;;;;;;4191056;28;20714;-57
2021/10/16 04:44:01;;;;;;;4.05;1.25;;;15.40;87.40;;;;;;4190971;28;20054;-56
2021/10/16 04:46:24;;;;;;;2.70;1.63;;;15.40;87.30;;;;;;4175913;28;20137;-57
2021/10/16 04:48:54;;;;;;;4.38;1.30;;;15.40;87.40;;;;;;4179880;28;20048;-57
2021/10/16 04:51:16;;;;;;;2.42;1.30;;;15.40;87.70;;;;;;4190461;28;20046;-56
2021/10/16 04:53:39;;;;;;;4.68;1.45;;;15.40;87.50;;;;;;4190811;28;20045;-57
2021/10/16 04:56:01;;;;;;;6.03;1.52;;;15.40;87.40;;;;;;4191077;28;20528;-55
2021/10/16 04:58:22;;;;;;;4.93;1.23;;;15.40;87.30;;;;;;4190663;28;20145;-57
2021/10/16 05:00:46;;;;;;;3.08;0.88;;;15.30;87.10;;;;;;4225881;27;20130;-57
2021/10/16 05:03:12;;;;;;;3.25;1.27;;;15.40;87.10;;;;;;4211904;27;20052;-57
2021/10/16 05:05:36;;;;;;;6.30;1.33;;;15.40;87.40;;;;;;4207262;28;20090;-57
2021/10/16 05:08:02;;;;;;;3.50;1.70;;;15.40;87.20;;;;;;4206699;28;20050;-56
2021/10/16 05:10:24;;;;;;;2.08;1.20;;;15.30;87.20;;;;;;4219203;28;20051;-57
2021/10/16 05:12:47;;;;;;;2.65;1.05;;;15.40;87.30;;;;;;4190384;28;20041;-57
2021/10/16 05:15:10;;;;;;;3.67;1.27;;;15.30;87.10;;;;;;4216112;28;20541;-58
2021/10/16 05:17:34;;;;;;;1.73;1.13;;;15.40;87.00;;;;;;4207079;28;20102;-57
2021/10/16 05:19:59;;;;;;;3.60;1.02;;;15.30;87.00;;;;;;4222612;27;20142;-56
2021/10/16 05:22:21;;;;;;;3.05;1.15;;;15.30;87.10;;;;;;4224039;27;20071;-57
2021/10/16 05:24:43;;;;;;;6.88;1.00;;;15.30;87.10;;;;;;4223893;27;20126;-56
2021/10/16 05:27:05;;;;;;;3.85;1.38;;;15.30;87.20;;;;;;4223790;27;20054;-57
2021/10/16 05:29:28;;;;;;;6.20;1.48;;;15.40;87.40;;;;;;4209754;28;20052;-59
2021/10/16 05:31:50;;;;;;;2.33;1.23;;;15.30;87.30;;;;;;4207125;28;20054;-58
2021/10/16 05:34:14;;;;;;;1.92;1.02;;;15.30;87.30;;;;;;4210287;28;20135;-55
2021/10/16 05:36:36;;;;;;;3.78;1.35;;;15.30;87.20;;;;;;4223809;27;20054;-58
2021/10/16 05:38:59;;;;;;;2.75;1.42;;;15.30;87.40;;;;;;4222769;27;20055;-56
2021/10/16 05:41:21;;;;;;;6.85;1.55;;;15.30;87.30;;;;;;4223658;27;20051;-58
2021/10/16 05:43:43;;;;;;;2.50;0.95;;;15.30;87.20;;;;;;4223598;27;20622;-57
2021/10/16 05:46:06;;;;;;;2.15;1.30;;;15.30;87.40;;;;;;4223513;27;20058;-57
2021/10/16 05:48:30;;;;;;;3.00;1.38;;;15.30;87.40;;;;;;4216027;28;20434;-57
2021/10/16 05:50:54;;;;;;;3.50;1.27;;;15.30;87.20;;;;;;4208152;28;20086;-58
2021/10/16 05:53:16;;;;;;;3.28;1.17;;;15.30;86.60;;;;;;4207159;27;20071;-57
2021/10/16 05:55:38;;;;;;;3.70;1.38;;;15.30;86.80;;;;;;4224686;27;20128;-56
2021/10/16 05:58:01;;;;;;;4.03;1.20;;;15.30;87.00;;;;;;4219627;28;20048;-57
2021/10/16 06:00:26;;;;;;;2.50;1.23;;;15.30;87.00;;;;;;4206948;28;20537;-57
2021/10/16 06:02:51;;;;;;;7.00;1.58;;;15.30;87.10;;;;;;4206651;28;20106;-57
2021/10/16 06:05:35;;;;;;;2.90;1.10;;;15.30;87.20;;;;;;4207958;28;20052;-57
2021/10/16 06:07:59;;;;;;;5.10;1.65;;;15.30;87.00;;;;;;4206329;28;20091;-57
2021/10/16 06:10:21;;;;;;;2.75;1.33;;;15.30;87.50;;;;;;4206328;28;20044;-57
2021/10/16 06:12:43;;;;;;;3.53;1.13;;;15.30;87.50;;;;;;4191129;28;20147;-57
2021/10/16 06:15:08;;;;;;;4.85;1.23;;;15.30;87.40;;;;;;4206750;28;20128;-53
2021/10/16 06:17:30;;;;;;;4.75;1.10;;;15.30;87.40;;;;;;4206246;28;20148;-57
2021/10/16 06:19:52;;;;;;;2.33;1.10;;;15.40;87.90;;;;;;4206389;28;20051;-57
2021/10/16 06:22:15;;;;;;;2.08;1.25;;;15.40;87.90;;;;;;4211330;27;20040;-56
2021/10/16 06:24:40;;;;;;;2.88;1.40;;;15.40;87.50;;;;;;4206718;28;20113;-59
2021/10/16 06:27:02;;;;;;;3.90;1.75;;;15.40;87.40;;;;;;4208017;28;20123;-58
2021/10/16 06:29:24;;;;;;;6.15;1.48;;;15.40;87.10;;;;;;4190067;28;20206;-55
2021/10/16 06:31:46;;;;;;;4.10;1.60;;;15.40;87.00;;;;;;4193151;28;20127;-58
2021/10/16 06:34:09;;;;;;;3.35;1.33;;;15.40;87.30;;;;;;4207447;27;20040;-58
2021/10/16 06:36:32;;;;;;;1.80;1.20;;;15.40;87.60;;;;;;4225996;27;20409;-56
2021/10/16 06:38:53;;;;;;;2.25;1.30;;;15.40;87.40;;;;;;4212991;27;20048;-56
2021/10/16 06:41:19;;;;;;;3.00;1.40;;;15.40;87.20;;;;;;4209000;28;20144;-57
2021/10/16 06:44:00;;;;;;;1.20;1.10;;;15.30;87.10;;;;;;4193975;28;20087;-58
2021/10/16 06:46:26;;;;;;;4.72;1.42;;;15.30;87.40;;;;;;4202605;28;20082;-57
2021/10/16 06:49:08;;;;;;;3.42;1.42;;;15.30;87.50;;;;;;4224478;27;20047;-59
2021/10/16 06:51:30;;;;;;;6.75;1.67;;;15.30;87.50;;;;;;4225014;27;20528;-58
2021/10/16 06:53:52;;;;;;;5.18;1.55;;;15.30;87.40;;;;;;4224414;27;20089;-57
2021/10/16 06:56:14;;;;;;;5.60;1.35;;;15.30;87.40;;;;;;4226666;27;20061;-57
2021/10/16 06:58:38;;;;;;;2.88;1.45;;;15.30;87.80;;;;;;4225249;27;20433;-57
2021/10/16 07:01:01;;;;;;;1.58;1.20;;;15.30;87.60;;;;;;4225380;27;20142;-57
2021/10/16 07:03:37;;;;;;;3.95;1.65;;;15.30;87.70;;;;;;4223646;27;20044;-56
2021/10/16 07:05:59;;;;;;;2.35;1.05;;;15.30;88.50;;;;;;4225201;27;20134;-56
2021/10/16 07:08:25;;;;;;;0.98;0.75;;;15.30;88.20;;;;;;4207140;28;20106;-57
2021/10/16 07:10:47;;;;;;;3.85;1.38;;;15.30;87.70;;;;;;4200483;28;20058;-57
2021/10/16 07:13:10;;;;;;;3.42;1.58;;;15.30;87.80;;;;;;4209480;28;20044;-58
2021/10/16 07:15:33;;;;;;;1.85;1.13;;;15.30;88.00;;;;;;4221862;27;20455;-57
2021/10/16 07:17:55;;;;;;;4.40;1.88;;;15.30;87.70;;;;;;4225826;27;20067;-56
2021/10/16 07:20:18;;;;;;;2.63;1.30;;;15.30;87.70;;;;;;4193867;28;20144;-55
2021/10/16 07:22:40;;;;;;;3.97;1.73;;;15.30;87.70;;;;;;4193756;28;20135;-56
2021/10/16 07:25:03;;;;;;;4.20;1.40;;;15.30;87.60;;;;;;4193613;28;20577;-53
2021/10/16 07:27:24;;;;;;;3.33;1.27;;;15.30;87.70;;;;;;4216583;27;20051;-56
2021/10/16 07:29:47;;;;;;;5.65;1.50;;;15.30;87.70;;;;;;4209734;28;20048;-56
2021/10/16 07:32:10;;;;;;;3.22;1.42;;;15.30;87.60;;;;;;4210327;28;20048;-56
2021/10/16 07:34:32;;;;;;;3.83;1.48;;;15.30;87.40;;;;;;4210458;28;20181;-56
2021/10/16 07:36:54;;;;;;;5.25;1.55;;;15.30;87.50;;;;;;4210323;28;20059;-57
2021/10/16 07:39:17;;;;;;;5.05;1.60;;;15.30;87.40;;;;;;4210686;28;20127;-54
2021/10/16 07:41:39;;;;;;;5.72;1.35;;;15.30;87.30;;;;;;4208803;28;20055;-57
2021/10/16 07:44:01;;;;;;;2.50;1.45;;;15.30;87.50;;;;;;4217995;27;20055;-57
2021/10/16 07:46:23;;;;;;;5.43;1.60;;;15.30;87.40;;;;;;4225166;27;20043;-56
2021/10/16 07:48:48;;;;;;;4.07;1.13;;;15.30;87.40;;;;;;4226878;27;20051;-57
2021/10/16 07:51:09;;;;;;;5.97;1.30;;;15.30;87.20;;;;;;4223573;27;20414;-56
2021/10/16 07:53:32;;;;;;;4.95;1.63;;;15.30;87.30;;;;;;4207120;28;20122;-56
2021/10/16 07:55:53;;;;;;;2.28;1.27;;;15.30;87.40;;;;;;4210062;28;20072;-57
2021/10/16 07:58:16;;;;;;;2.40;1.33;;;15.30;87.30;;;;;;4210652;27;20055;-55
2021/10/16 08:00:38;;;;;;;3.33;1.55;;;15.30;87.50;;;;;;4210243;28;20040;-54
2021/10/16 08:03:00;;;;;;;2.63;1.65;;;15.20;87.30;;;;;;4208315;28;20044;-57
2021/10/16 08:05:25;;;;;;;4.13;1.55;;;15.30;87.20;;;;;;4209659;28;20071;-57
2021/10/16 08:07:47;;;;;;;2.65;1.33;;;15.30;87.30;;;;;;4210034;27;20051;-57
2021/10/16 08:10:10;;;;;;;2.72;1.25;;;15.20;87.40;;;;;;4213607;28;20054;-58
2021/10/16 08:12:32;;;;;;;3.08;1.30;;;15.20;87.30;;;;;;4226778;27;20134;-58
2021/10/16 08:14:54;;;;;;;3.28;1.67;;;15.30;87.60;;;;;;4226647;27;20048;-56
2021/10/16 08:17:16;;;;;;;3.40;1.27;;;15.40;89.10;;;;;;4224754;27;20139;-53
2021/10/16 08:19:42;;;;;;;3.03;1.90;;;15.60;88.90;;;;;;4223781;27;20351;-57
2021/10/16 08:22:08;;;;;;;1.90;1.10;;;15.90;88.00;;;;;;4226304;27;20043;-51
2021/10/16 08:24:30;;;;;;;4.78;1.10;;;16.30;86.80;;;;;;4226518;27;20052;-55
2021/10/16 08:26:52;;;;;;;3.08;1.33;;;16.70;85.20;;;;;;4225346;27;20082;-54
2021/10/16 08:29:14;;;;;;;1.52;1.13;;;17.20;83.40;;;;;;4208527;28;20133;-56
2021/10/16 08:31:37;;;;;;;4.05;1.35;;;17.50;81.60;;;;;;4209358;28;20140;-57
2021/10/16 08:33:59;;;;;;;4.13;1.95;;;17.90;80.10;;;;;;4209431;28;20054;-55
2021/10/16 08:36:21;;;;;;;4.78;1.45;;;18.20;78.70;;;;;;4208878;28;20113;-59
2021/10/16 08:38:45;;;;;;;4.07;1.30;;;18.40;77.70;;;;;;4208475;28;20060;-58
2021/10/16 08:41:10;;;;;;;2.05;1.40;;;18.50;76.90;;;;;;4206924;28;20044;-57
2021/10/16 08:43:32;;;;;;;5.25;1.40;;;18.70;76.30;;;;;;4208610;28;20089;-57
2021/10/16 08:46:00;;;;;;;2.60;1.27;;;18.70;76.00;;;;;;4209398;28;20620;-56
2021/10/16 08:48:23;;;;;;;2.53;1.10;;;18.70;75.20;;;;;;4211682;27;20055;-55
2021/10/16 08:50:48;;;;;;;4.57;1.48;;;18.70;75.60;;;;;;4209036;27;20093;-58
2021/10/16 08:53:10;;;;;;;3.70;1.40;;;18.60;75.40;;;;;;4213509;27;20043;-55
2021/10/16 08:55:33;;;;;;;5.25;1.40;;;18.50;75.40;;;;;;4225718;27;20051;-58
2021/10/16 08:57:56;;;;;;;3.70;1.38;;;18.50;76.40;;;;;;4225937;27;20043;-59
2021/10/16 09:00:41;;;;;;;2.15;1.17;;;18.50;77.10;;;;;;4216741;27;20050;-58
2021/10/16 09:03:15;;;;;;;4.78;1.50;;;18.40;76.70;;;;;;4208590;28;20052;-59
2021/10/16 09:05:37;;;;;;;2.97;1.10;;;18.30;77.20;;;;;;4208246;28;20059;-59
2021/10/16 09:07:59;;;;;;;2.83;1.73;;;18.30;77.90;;;;;;4207729;28;20055;-59
2021/10/16 09:10:23;;;;;;;5.45;1.65;;;18.20;78.30;;;;;;4208527;28;20055;-59
2021/10/16 09:12:46;;;;;;;4.30;1.20;;;18.10;78.70;;;;;;4225122;27;20047;-58
2021/10/16 09:15:21;;;;;;;3.97;1.25;;;18.10;79.00;;;;;;4225585;27;20052;-58
2021/10/16 09:18:02;;;;;;;2.40;1.15;;;18.20;78.10;;;;;;4225425;27;20105;-59
2021/10/16 09:20:33;;;;;;;1.55;1.17;;;18.30;78.00;;;;;;4224916;27;20134;-59
2021/10/16 09:23:03;;;;;;;;;;;18.20;77.60;;;;;;4225529;27;20055;-58
2021/10/16 09:25:25;;;;;;;2.60;1.40;;;18.20;78.80;;;;;;4225081;27;20434;-60
2021/10/16 09:28:08;;;;;;;5.15;1.75;;;18.20;78.50;;;;;;4225288;27;20131;-59
2021/10/16 09:30:33;;;;;;;3.65;1.50;;;18.20;77.90;;;;;;4224251;27;20142;-59
2021/10/16 09:32:56;;;;;;;3.65;1.35;;;18.20;78.20;;;;;;4225429;27;20083;-59
2021/10/16 09:35:18;;;;;;;3.25;1.40;;;18.10;77.90;;;;;;4224988;27;20416;-60
2021/10/16 09:37:51;;;;;;;4.22;1.73;;;18.10;78.00;;;;;;4225066;27;20054;-59
2021/10/16 09:40:14;;;;;;;3.50;1.50;;;18.20;77.20;;;;;;4224006;27;20386;-59
2021/10/16 09:42:40;;;;;;;3.88;1.58;;;18.10;77.80;;;;;;4222841;27;20056;-59
2021/10/16 09:45:06;;;;;;;2.50;1.00;;;18.10;77.80;;;;;;4224870;27;20079;-59
2021/10/16 09:47:28;;;;;;;2.55;1.10;;;18.00;77.90;;;;;;4225232;27;20044;-59
2021/10/16 09:49:57;;;;;;;4.00;1.17;;;18.00;78.30;;;;;;4223745;27;20479;-59
2021/10/16 09:52:21;;;;;;;2.75;1.35;;;18.00;78.30;;;;;;4207469;28;20044;-58
2021/10/16 09:54:46;;;;;;;2.70;1.23;;;18.00;78.10;;;;;;4207988;28;20593;-59
2021/10/16 09:57:10;;;;;;;2.70;1.50;;;18.10;77.90;;;;;;4191293;28;20060;-59
2021/10/16 09:59:34;;;;;;;4.05;1.17;;;18.10;77.80;;;;;;4190719;28;20049;-59
2021/10/16 10:01:59;;;;;;;3.22;1.35;;;18.10;77.30;;;;;;4191590;28;20148;-59
2021/10/16 10:04:24;;;;;;;2.60;1.08;;;18.20;77.30;;;;;;4190795;28;20045;-59
2021/10/16 10:06:47;;;;;;;3.47;1.13;;;18.20;77.40;;;;;;4224634;27;20058;-59
2021/10/16 10:09:10;;;;;;;7.63;1.83;;;18.20;77.20;;;;;;4224831;27;20459;-59
2021/10/16 10:11:34;;;;;;;3.03;1.63;;;18.20;76.60;;;;;;4191325;28;20116;-58
2021/10/16 10:13:57;;;;;;;1.70;1.20;;;18.30;76.20;;;;;;4191172;28;20060;-59
2021/10/16 10:16:22;;;;;;;3.60;1.55;;;18.20;76.80;;;;;;4191082;28;20118;-59
2021/10/16 10:19:00;;;;;;;2.78;1.33;;;18.20;76.60;;;;;;4190949;28;20060;-59
2021/10/16 10:21:23;;;;;;;3.15;1.48;;;18.20;76.90;;;;;;4191319;28;20422;-59
2021/10/16 10:23:56;;;;;;;2.88;1.23;;;18.20;77.00;;;;;;4191226;28;20052;-59
2021/10/16 10:26:29;;;;;;;2.58;1.20;;;18.20;76.10;;;;;;4191215;28;20059;-59
2021/10/16 10:28:54;;;;;;;3.13;1.58;;;18.20;76.30;;;;;;4190949;28;20041;-59
2021/10/16 10:31:57;;;;;;;1.10;0.98;;;18.20;76.70;;;;;;4190854;28;20067;-59
2021/10/16 10:34:25;;;;;;;3.50;1.23;;;18.20;76.10;;;;;;4191177;28;20495;-59
2021/10/16 10:36:49;;;;;;;3.42;1.55;;;18.20;77.60;;;;;;4200934;28;20138;-59
2021/10/16 10:39:43;;;;;;;1.35;1.13;;;18.20;76.80;;;;;;4207223;28;20056;-58
2021/10/16 10:42:44;;;;;;;5.25;1.27;;;18.20;77.90;;;;;;4199869;28;20040;-57
2021/10/16 10:45:38;;;;;;;4.22;1.40;;;18.10;77.20;;;;;;4206857;28;20044;-56
2021/10/16 10:48:06;;;;;;;8.05;1.48;;;18.20;76.60;;;;;;4221719;27;20130;-58
2021/10/16 10:50:56;;;;;;;7.20;1.83;;;18.10;77.00;;;;;;4218651;27;20092;-57
2021/10/16 10:53:42;;;;;;;4.00;1.17;;;18.00;75.90;;;;;;4190780;28;20060;-57
2021/10/16 10:56:08;;;;;;;2.00;0.85;;;18.00;76.30;;;;;;4204624;28;20052;-53
2021/10/16 10:58:59;;;;;;;3.88;1.40;;;18.00;76.70;;;;;;4207769;28;20119;-58
2021/10/16 11:02:03;;;;;;;2.43;1.30;;;18.10;75.60;;;;;;4202600;28;20059;-56
2021/10/16 11:04:45;;;;;;;1.92;1.10;;;18.10;75.00;;;;;;4205900;28;20113;-57
2021/10/16 11:07:11;;;;;;;4.35;1.35;;;18.10;74.50;;;;;;4188507;28;20460;-59
2021/10/16 11:09:34;;;;;;;2.97;1.25;;;18.10;74.40;;;;;;4207597;28;20055;-57
2021/10/16 11:11:56;;;;;;;3.53;1.20;;;18.10;74.40;;;;;;4207296;28;20051;-58
2021/10/16 11:14:19;;;;;;;2.25;1.33;;;18.10;74.90;;;;;;4207343;28;20398;-58
2021/10/16 11:16:53;;;;;;;4.60;1.25;;;18.10;74.00;;;;;;4207354;28;20571;-59
2021/10/16 11:19:16;;;;;;;3.97;1.40;;;18.10;72.90;;;;;;4209800;28;20048;-59
2021/10/16 11:21:38;;;;;;;4.65;1.20;;;18.20;73.20;;;;;;4205840;28;20048;-59
2021/10/16 11:24:05;;;;;;;3.67;1.55;;;18.20;73.10;;;;;;4196051;28;20056;-59
2021/10/16 11:26:27;;;;;;;2.60;1.90;;;18.10;72.80;;;;;;4227001;27;20059;-59
2021/10/16 11:28:49;;;;;;;4.80;2.13;;;18.10;72.90;;;;;;4227098;27;20057;-59
2021/10/16 11:31:11;;;;;;;6.80;2.25;;;18.00;72.70;;;;;;4226949;27;20138;-59
2021/10/16 11:33:39;;;;;;;3.50;1.63;;;18.00;73.20;;;;;;4226767;27;20062;-59
2021/10/16 11:36:02;;;;;;;3.33;1.15;;;17.90;73.20;;;;;;4192884;28;20556;-59
2021/10/16 11:38:26;;;;;;;3.08;1.50;;;17.90;73.10;;;;;;4208923;28;20052;-59
2021/10/16 11:40:50;;;;;;;4.07;1.45;;;17.80;73.50;;;;;;4203703;28;20044;-60
2021/10/16 11:43:14;;;;;;;2.85;1.20;;;17.80;73.60;;;;;;4193357;28;20097;-60
2021/10/16 11:45:38;;;;;;;2.38;1.23;;;17.80;73.90;;;;;;4207420;27;20509;-60
2021/10/16 11:48:02;;;;;;;4.07;1.13;;;17.80;73.60;;;;;;4210252;28;20048;-60
2021/10/16 11:50:27;;;;;;;1.67;1.00;;;17.90;73.40;;;;;;4206741;28;20040;-59
2021/10/16 11:52:51;;;;;;;2.70;1.25;;;17.90;72.90;;;;;;4209068;28;20105;-59
2021/10/16 11:55:17;;;;;;;2.20;1.20;;;17.90;72.90;;;;;;4205254;28;20501;-59
2021/10/16 11:57:40;;;;;;;2.70;1.33;;;18.00;72.30;;;;;;4209987;28;20418;-60
2021/10/16 12:00:16;;;;;;;2.75;1.50;;;18.10;71.70;;;;;;4209384;28;20062;-59
2021/10/16 12:02:38;;;;;;;4.25;1.80;;;18.20;70.90;;;;;;4208972;28;20044;-59
2021/10/16 12:05:10;;;;;;;2.70;1.20;;;18.20;71.20;;;;;;4209174;28;20066;-59
2021/10/16 12:07:32;;;;;;;4.13;1.63;;;18.10;70.80;;;;;;4208965;28;20102;-59
2021/10/16 12:10:19;;;;;;;2.83;1.17;;;18.10;70.90;;;;;;4209765;28;20060;-59
2021/10/16 12:13:08;;;;;;;9.95;2.05;;;18.10;70.70;;;;;;4208201;28;20124;-59
2021/10/16 12:15:43;;;;;;;5.63;1.63;;;18.00;70.80;;;;;;4206689;28;20452;-60
2021/10/16 12:18:06;;;;;;;2.50;1.40;;;17.90;70.80;;;;;;4192520;28;20041;-60
2021/10/16 12:20:28;;;;;;;4.15;1.30;;;17.80;71.50;;;;;;4195147;28;20044;-60
2021/10/16 12:22:56;;;;;;;3.78;1.80;;;17.80;71.80;;;;;;4208608;28;20097;-59
2021/10/16 12:25:19;;;;;;;2.95;1.40;;;17.80;71.60;;;;;;4192348;28;20121;-59
2021/10/16 12:27:41;;;;;;;4.25;1.52;;;17.80;71.90;;;;;;4191925;28;20044;-59
2021/10/16 12:30:11;;;;;;;6.07;1.60;;;17.80;71.80;;;;;;4203799;28;20113;-59
2021/10/16 12:32:33;;;;;;;7.82;1.70;;;17.80;71.30;;;;;;4192190;28;20131;-59
2021/10/16 12:34:58;;;;;;;2.70;2.00;;;17.80;71.50;;;;;;4207464;28;20048;-59
2021/10/16 12:37:21;;;;;;;4.88;1.77;;;17.70;71.50;;;;;;4225952;27;20467;-59